Time;durP1;ratioP1;P1;durP2;ratioP2;P2;SDS_P1;SDS_P2;PMS_P1;PMS_P2;Temp;Humidity;BMP_temperature;BMP_pressure;BME280_temperature;BME280_humidity;BME280_pressure;Samples;Min_cycle;Max_cycle;Signal;HPM_P1;HPM_P2
2022/04/15 00:00:03;;;;;;;116.35;105.68;;;11.50;88.00;;;;;;5015293;28;20041;-80
2022/04/15 00:02:38;;;;;;;115.93;105.22;;;11.50;88.50;;;;;;5015242;28;20050;-80
2022/04/15 00:05:29;;;;;;;116.07;105.40;;;11.50;88.90;;;;;;5015331;28;20139;-80
2022/04/15 00:07:56;;;;;;;115.13;104.70;;;11.40;89.10;;;;;;5014598;28;20064;-80
2022/04/15 00:10:23;;;;;;;115.18;104.80;;;11.40;89.00;;;;;;5015498;28;20137;-80
2022/04/15 00:12:50;;;;;;;117.32;106.72;;;11.40;89.00;;;;;;5015128;28;20064;-80
2022/04/15 00:15:17;;;;;;;115.82;105.32;;;11.30;89.30;;;;;;5033134;28;20504;-80
2022/04/15 00:17:44;;;;;;;115.50;104.88;;;11.20;89.40;;;;;;5014652;28;20133;-80
2022/04/15 00:20:12;;;;;;;116.70;105.88;;;11.20;89.60;;;;;;4998640;28;20348;-80
2022/04/15 00:22:39;;;;;;;115.47;105.13;;;11.20;89.90;;;;;;5015171;28;20053;-80
2022/04/15 00:25:10;;;;;;;117.60;106.88;;;11.10;89.70;;;;;;5015293;28;20077;-80
2022/04/15 00:27:37;;;;;;;115.35;104.85;;;11.10;89.90;;;;;;5014695;28;20109;-80
2022/04/15 00:30:04;;;;;;;116.10;105.40;;;11.10;89.70;;;;;;5015075;28;20136;-80
2022/04/15 00:32:31;;;;;;;116.22;105.60;;;11.10;89.80;;;;;;5015064;28;20058;-80
2022/04/15 00:34:58;;;;;;;116.30;105.30;;;11.10;89.60;;;;;;5014995;28;20054;-80
2022/04/15 00:37:25;;;;;;;117.35;106.30;;;11.10;89.80;;;;;;5014508;28;20061;-80
2022/04/15 00:39:53;;;;;;;115.40;104.85;;;11.10;89.90;;;;;;5014855;28;20060;-80
2022/04/15 00:42:21;;;;;;;114.68;104.35;;;11.00;89.80;;;;;;5014903;28;20049;-80
2022/04/15 00:44:48;;;;;;;115.68;105.20;;;11.00;90.00;;;;;;4999602;28;20053;-80
2022/04/15 00:47:19;;;;;;;117.55;106.53;;;11.00;90.00;;;;;;5018079;28;20058;-80
2022/04/15 00:49:46;;;;;;;114.75;104.25;;;11.00;90.10;;;;;;5017976;28;20149;-80
2022/04/15 00:52:15;;;;;;;115.68;105.03;;;11.00;90.00;;;;;;5002154;28;20088;-80
2022/04/15 00:54:44;;;;;;;115.28;104.97;;;10.90;90.10;;;;;;5018327;28;20503;-80
2022/04/15 00:57:16;;;;;;;117.53;106.53;;;10.90;90.10;;;;;;5017807;28;20065;-81
2022/04/15 00:59:46;;;;;;;114.53;104.13;;;10.90;90.30;;;;;;5018316;28;20059;-80
2022/04/15 01:02:17;;;;;;;114.72;104.00;;;10.80;90.30;;;;;;5018183;28;20161;-80
2022/04/15 01:04:45;;;;;;;115.30;104.50;;;10.80;90.40;;;;;;5018442;28;20734;-80
2022/04/15 01:07:15;;;;;;;119.70;109.05;;;10.70;90.40;;;;;;5017819;28;20061;-80
2022/04/15 01:09:45;;;;;;;114.93;104.53;;;10.70;90.60;;;;;;5017880;28;20220;-80
2022/04/15 01:12:14;;;;;;;118.28;107.55;;;10.60;90.80;;;;;;5018016;28;20505;-80
2022/04/15 01:14:44;;;;;;;116.70;105.85;;;10.50;91.00;;;;;;5017998;28;20058;-80
2022/04/15 01:17:11;;;;;;;119.90;108.68;;;10.40;91.20;;;;;;5017650;28;20050;-80
2022/04/15 01:19:38;;;;;;;117.00;106.15;;;10.30;91.30;;;;;;5017770;28;20060;-80
2022/04/15 01:22:12;;;;;;;115.65;105.05;;;10.20;91.40;;;;;;5018105;28;20128;-80
2022/04/15 01:24:40;;;;;;;116.57;106.18;;;10.20;91.80;;;;;;5017898;28;20050;-80
2022/04/15 01:27:07;;;;;;;119.45;108.40;;;10.10;91.80;;;;;;5017549;28;20061;-80
2022/04/15 01:29:37;;;;;;;116.88;105.60;;;10.10;92.10;;;;;;5017957;28;20054;-80
2022/04/15 01:32:05;;;;;;;115.50;104.90;;;10.00;92.20;;;;;;5001379;28;20053;-80
2022/04/15 01:34:32;;;;;;;116.13;105.13;;;10.00;92.30;;;;;;5017464;28;20042;-80
2022/04/15 01:37:00;;;;;;;117.97;107.07;;;9.90;92.50;;;;;;5017760;28;20528;-80
2022/04/15 01:39:28;;;;;;;114.93;104.32;;;9.90;92.70;;;;;;5017757;28;20218;-80
2022/04/15 01:41:56;;;;;;;114.55;103.78;;;9.80;92.80;;;;;;5017969;28;20383;-80
2022/04/15 01:44:24;;;;;;;116.20;105.70;;;9.80;92.90;;;;;;5017656;28;20054;-80
2022/04/15 01:46:50;;;;;;;115.70;104.88;;;9.70;92.90;;;;;;5035384;28;20053;-80
2022/04/15 01:49:17;;;;;;;116.90;105.70;;;9.70;93.00;;;;;;5017181;28;20105;-80
2022/04/15 01:51:44;;;;;;;115.40;104.47;;;9.70;93.10;;;;;;5035176;28;20045;-80
2022/04/15 01:54:11;;;;;;;114.93;104.20;;;9.70;92.90;;;;;;5000914;28;20612;-80
2022/04/15 01:56:39;;;;;;;114.00;103.35;;;9.70;92.90;;;;;;5016642;28;20508;-80
2022/04/15 01:59:09;;;;;;;113.75;103.25;;;9.70;93.00;;;;;;5017061;28;20050;-80
2022/04/15 02:01:36;;;;;;;115.15;104.35;;;9.70;93.10;;;;;;5017537;28;20148;-80
2022/04/15 02:04:03;;;;;;;116.47;105.45;;;9.70;93.20;;;;;;5016842;28;20054;-80
2022/04/15 02:06:30;;;;;;;116.32;105.65;;;9.70;93.50;;;;;;5017310;28;20042;-80
2022/04/15 02:08:57;;;;;;;115.43;104.72;;;9.70;93.50;;;;;;5016544;28;21050;-80
2022/04/15 02:11:24;;;;;;;115.80;104.95;;;9.70;93.60;;;;;;5017025;28;20141;-80
2022/04/15 02:13:51;;;;;;;117.72;106.72;;;9.70;93.70;;;;;;5016892;28;20108;-80
2022/04/15 02:16:19;;;;;;;115.18;104.50;;;9.70;93.60;;;;;;5016977;28;20062;-80
2022/04/15 02:18:46;;;;;;;116.15;105.18;;;9.60;93.50;;;;;;5016923;28;20120;-80
2022/04/15 02:21:13;;;;;;;115.78;104.72;;;9.60;93.80;;;;;;5016890;28;20053;-80
2022/04/15 02:23:40;;;;;;;115.63;104.63;;;9.60;93.60;;;;;;5000630;28;20512;-80
2022/04/15 02:26:06;;;;;;;117.63;106.47;;;9.60;93.40;;;;;;5017020;28;20052;-80
2022/04/15 02:28:33;;;;;;;114.93;104.20;;;9.60;93.80;;;;;;5016415;28;20065;-80
2022/04/15 02:31:00;;;;;;;115.40;104.38;;;9.60;93.90;;;;;;5016606;28;20105;-80
2022/04/15 02:33:29;;;;;;;116.15;104.85;;;9.60;94.00;;;;;;5016502;28;20066;-79
2022/04/15 02:35:56;;;;;;;115.50;104.60;;;9.50;94.10;;;;;;5017031;28;20049;-80
2022/04/15 02:38:22;;;;;;;115.93;105.03;;;9.50;94.20;;;;;;5016419;28;20054;-80
2022/04/15 02:40:50;;;;;;;115.90;105.10;;;9.40;94.30;;;;;;5016750;28;20050;-80
2022/04/15 02:43:17;;;;;;;115.60;104.72;;;9.40;94.40;;;;;;5016749;28;20512;-80
2022/04/15 02:45:44;;;;;;;115.68;104.53;;;9.40;94.50;;;;;;5000142;28;20046;-79
2022/04/15 02:48:11;;;;;;;115.78;104.80;;;9.40;94.50;;;;;;5016215;28;20046;-79
2022/04/15 02:50:40;;;;;;;116.13;105.35;;;9.30;94.60;;;;;;5016490;28;20057;-79
2022/04/15 02:53:07;;;;;;;116.70;105.57;;;9.30;94.70;;;;;;5016108;28;20124;-80
2022/04/15 02:55:34;;;;;;;116.50;105.28;;;9.30;94.80;;;;;;5016509;28;20505;-80
2022/04/15 02:58:00;;;;;;;115.43;104.63;;;9.20;94.90;;;;;;5016335;28;20518;-79
2022/04/15 03:00:27;;;;;;;115.25;104.20;;;9.20;95.00;;;;;;5034321;28;20049;-79
2022/04/15 03:02:54;;;;;;;115.97;104.75;;;9.20;95.30;;;;;;5016508;28;20049;-79
2022/04/15 03:05:22;;;;;;;115.40;104.60;;;9.10;95.10;;;;;;5016386;28;20054;-79
2022/04/15 03:07:50;;;;;;;116.68;105.70;;;9.10;95.20;;;;;;4998671;28;20514;-80
2022/04/15 03:10:17;;;;;;;115.93;105.15;;;9.10;95.40;;;;;;5015975;28;20136;-80
2022/04/15 03:12:44;;;;;;;115.38;104.63;;;9.00;95.40;;;;;;5016074;28;20553;-79
2022/04/15 03:15:11;;;;;;;115.10;104.15;;;9.00;95.50;;;;;;5000064;28;20136;-79
2022/04/15 03:17:38;;;;;;;114.55;103.85;;;9.00;95.50;;;;;;5015793;28;20049;-80
2022/04/15 03:20:06;;;;;;;117.80;106.88;;;8.90;95.60;;;;;;5015848;28;20050;-80
2022/04/15 03:22:36;;;;;;;115.00;104.53;;;9.00;95.70;;;;;;5015837;28;20038;-80
2022/04/15 03:25:06;;;;;;;116.57;105.47;;;9.00;95.80;;;;;;5016110;28;20075;-80
2022/04/15 03:27:33;;;;;;;115.70;104.80;;;8.90;95.80;;;;;;5033542;28;20057;-80
2022/04/15 03:30:00;;;;;;;114.68;104.05;;;8.90;95.90;;;;;;5015609;28;20054;-79
2022/04/15 03:32:27;;;;;;;118.53;107.75;;;8.90;96.00;;;;;;5015882;28;20046;-80
2022/04/15 03:34:54;;;;;;;116.72;105.95;;;8.90;96.10;;;;;;5015772;28;20050;-79
2022/04/15 03:37:21;;;;;;;116.45;105.55;;;8.90;96.20;;;;;;5015273;28;20049;-79
2022/04/15 03:39:48;;;;;;;116.90;105.93;;;8.80;96.20;;;;;;5015432;28;20057;-79
2022/04/15 03:42:16;;;;;;;117.63;106.60;;;8.80;96.10;;;;;;5015632;28;20496;-79
2022/04/15 03:44:43;;;;;;;115.35;104.40;;;8.80;96.20;;;;;;5015414;28;20052;-80
2022/04/15 03:47:10;;;;;;;118.82;107.75;;;8.80;96.30;;;;;;5015464;28;20155;-79
2022/04/15 03:49:37;;;;;;;117.13;106.32;;;8.80;96.30;;;;;;4999040;28;20046;-79
2022/04/15 03:52:06;;;;;;;114.88;104.15;;;8.80;96.20;;;;;;5015824;28;20076;-80
2022/04/15 03:54:33;;;;;;;115.60;104.55;;;8.80;96.30;;;;;;5015718;28;20081;-79
2022/04/15 03:57:00;;;;;;;118.03;107.10;;;8.80;96.10;;;;;;5033234;28;20054;-80
2022/04/15 03:59:28;;;;;;;121.72;110.75;;;8.80;96.10;;;;;;5015872;28;20053;-79
2022/04/15 04:01:55;;;;;;;120.93;109.93;;;8.90;96.10;;;;;;5015604;28;20050;-80
2022/04/15 04:04:22;;;;;;;117.47;106.60;;;8.90;96.10;;;;;;5015256;28;20053;-80
2022/04/15 04:06:49;;;;;;;115.18;104.38;;;8.90;96.10;;;;;;5033259;28;20045;-79
2022/04/15 04:09:16;;;;;;;117.72;106.95;;;8.90;96.30;;;;;;5015198;28;20054;-80
2022/04/15 04:11:43;;;;;;;116.13;105.15;;;8.90;96.30;;;;;;5015192;28;20515;-79
2022/04/15 04:14:10;;;;;;;118.35;107.15;;;8.90;96.30;;;;;;5015162;28;20050;-79
2022/04/15 04:16:38;;;;;;;114.75;103.95;;;8.90;96.40;;;;;;5015240;28;20050;-79
2022/04/15 04:19:05;;;;;;;116.50;105.63;;;8.90;96.40;;;;;;5014277;28;20050;-79
2022/04/15 04:21:33;;;;;;;118.00;106.90;;;8.90;96.40;;;;;;5014763;28;20046;-79
2022/04/15 04:24:00;;;;;;;118.47;107.60;;;8.90;96.20;;;;;;4998615;28;20347;-80
2022/04/15 04:26:27;;;;;;;116.65;105.78;;;9.00;96.40;;;;;;5014892;28;20073;-80
2022/04/15 04:28:55;;;;;;;119.95;108.72;;;8.90;96.30;;;;;;5014352;28;20050;-79
2022/04/15 04:31:22;;;;;;;116.88;106.00;;;9.00;96.40;;;;;;5014800;28;20406;-79
2022/04/15 04:33:50;;;;;;;118.45;107.28;;;9.00;96.40;;;;;;5014842;28;20061;-79
2022/04/15 04:36:17;;;;;;;116.53;105.65;;;9.00;96.50;;;;;;5014458;28;20436;-80
2022/04/15 04:38:44;;;;;;;120.35;109.35;;;9.00;96.40;;;;;;5014438;28;20054;-79
2022/04/15 04:41:10;;;;;;;115.15;104.35;;;9.00;96.60;;;;;;5014758;28;20049;-79
2022/04/15 04:43:38;;;;;;;116.45;105.60;;;9.00;96.30;;;;;;5015045;28;20133;-80
2022/04/15 04:46:05;;;;;;;115.95;104.93;;;9.10;96.30;;;;;;5014795;28;20516;-79
2022/04/15 04:48:32;;;;;;;116.00;105.28;;;9.10;96.20;;;;;;5014628;28;20086;-79
2022/04/15 04:51:00;;;;;;;115.30;104.40;;;9.10;96.20;;;;;;5013977;28;20054;-79
2022/04/15 04:53:27;;;;;;;115.72;104.68;;;9.10;96.10;;;;;;5014567;28;20061;-80
2022/04/15 04:55:54;;;;;;;115.97;105.05;;;9.20;96.10;;;;;;5014505;28;20423;-80
2022/04/15 04:58:21;;;;;;;115.35;104.43;;;9.20;96.10;;;;;;5014789;28;20137;-79
2022/04/15 05:00:48;;;;;;;115.35;104.60;;;9.20;96.20;;;;;;5013971;28;20057;-79
2022/04/15 05:03:15;;;;;;;115.15;104.35;;;9.30;96.20;;;;;;5014603;28;20580;-79
2022/04/15 05:05:41;;;;;;;117.78;106.72;;;9.30;96.40;;;;;;5014350;28;20129;-79
2022/04/15 05:08:10;;;;;;;117.90;106.72;;;9.30;96.50;;;;;;5014236;28;20062;-79
2022/04/15 05:10:37;;;;;;;118.68;107.68;;;9.30;96.60;;;;;;5029606;28;20126;-79
2022/04/15 05:13:04;;;;;;;118.28;107.35;;;9.30;96.60;;;;;;5010945;28;20041;-79
2022/04/15 05:15:30;;;;;;;117.95;107.10;;;9.40;96.70;;;;;;5014210;28;20502;-79
2022/04/15 05:17:57;;;;;;;117.28;106.32;;;9.40;96.70;;;;;;5013644;28;20128;-79
2022/04/15 05:20:24;;;;;;;118.57;107.78;;;9.40;96.60;;;;;;5011526;28;20050;-79
2022/04/15 05:22:51;;;;;;;119.90;108.95;;;9.40;96.60;;;;;;5013866;28;20050;-79
2022/04/15 05:25:20;;;;;;;118.82;108.07;;;9.40;96.60;;;;;;5014345;28;20058;-79
2022/04/15 05:27:46;;;;;;;115.90;105.20;;;9.40;96.60;;;;;;4996972;28;20050;-79
2022/04/15 05:30:13;;;;;;;118.32;107.63;;;9.40;96.60;;;;;;5014426;28;20058;-80
2022/04/15 05:32:40;;;;;;;118.72;107.93;;;9.40;96.50;;;;;;5017086;28;20052;-79
2022/04/15 05:35:08;;;;;;;118.32;107.72;;;9.40;96.50;;;;;;5015933;28;20053;-81
2022/04/15 05:37:35;;;;;;;120.72;110.03;;;9.50;96.50;;;;;;5015376;28;20209;-81
2022/04/15 05:40:02;;;;;;;118.22;107.72;;;9.50;96.40;;;;;;5015705;28;21533;-81
2022/04/15 05:42:30;;;;;;;118.45;107.95;;;9.50;96.40;;;;;;5015427;28;20060;-81
2022/04/15 05:44:57;;;;;;;117.05;106.57;;;9.50;96.40;;;;;;5016192;28;20064;-81
2022/04/15 05:47:24;;;;;;;122.22;111.55;;;9.50;96.40;;;;;;4999341;28;20054;-80
2022/04/15 05:49:51;;;;;;;114.88;104.38;;;9.50;96.40;;;;;;4999849;28;20137;-79
2022/04/15 05:52:18;;;;;;;114.90;104.57;;;9.60;96.30;;;;;;5016247;28;20056;-79
2022/04/15 05:54:45;;;;;;;113.63;103.22;;;9.60;96.30;;;;;;5034475;28;20433;-79
2022/04/15 05:57:13;;;;;;;113.80;103.40;;;9.50;96.30;;;;;;5016803;28;20081;-79
2022/04/15 05:59:42;;;;;;;112.63;102.43;;;9.60;96.30;;;;;;5017499;28;20056;-79
2022/04/15 06:02:09;;;;;;;115.40;105.10;;;9.60;96.20;;;;;;5000636;28;20085;-78
2022/04/15 06:04:36;;;;;;;113.57;103.38;;;9.60;96.20;;;;;;5016653;28;20054;-79
2022/04/15 06:07:03;;;;;;;115.78;105.32;;;9.60;96.10;;;;;;5016133;28;20551;-78
2022/04/15 06:09:30;;;;;;;113.80;103.40;;;9.60;96.10;;;;;;5015448;28;20058;-81
2022/04/15 06:11:57;;;;;;;113.70;103.43;;;9.60;96.10;;;;;;5014370;28;20064;-78
2022/04/15 06:14:24;;;;;;;113.00;102.63;;;9.60;96.00;;;;;;5015699;28;20062;-79
2022/04/15 06:16:53;;;;;;;113.78;103.38;;;9.60;96.00;;;;;;5014500;28;20054;-81
2022/04/15 06:19:22;;;;;;;117.82;107.32;;;9.70;96.20;;;;;;5000321;28;20053;-78
2022/04/15 06:21:49;;;;;;;111.93;101.72;;;9.70;95.90;;;;;;5016995;28;20512;-80
2022/04/15 06:24:16;;;;;;;111.18;101.07;;;9.70;95.90;;;;;;5017054;28;20062;-78
2022/04/15 06:26:42;;;;;;;111.93;101.72;;;9.70;95.80;;;;;;5034437;28;20137;-81
2022/04/15 06:29:09;;;;;;;112.25;102.05;;;9.70;95.80;;;;;;5016739;28;20046;-78
2022/04/15 06:31:36;;;;;;;111.78;101.68;;;9.70;95.90;;;;;;5000139;28;20058;-78
2022/04/15 06:34:04;;;;;;;110.38;100.47;;;9.70;95.80;;;;;;5016727;28;20508;-79
2022/04/15 06:36:31;;;;;;;109.93;99.82;;;9.70;95.80;;;;;;5000828;28;20061;-77
2022/04/15 06:38:58;;;;;;;112.78;102.63;;;9.70;95.70;;;;;;5016136;28;20565;-79
2022/04/15 06:41:25;;;;;;;114.22;104.00;;;9.70;95.70;;;;;;5016322;28;20050;-80
2022/04/15 06:43:52;;;;;;;113.93;103.63;;;9.70;95.70;;;;;;4999412;28;20049;-77
2022/04/15 06:46:19;;;;;;;114.40;104.20;;;9.70;95.80;;;;;;5015408;28;20061;-78
2022/04/15 06:48:46;;;;;;;114.15;103.80;;;9.70;95.70;;;;;;5014681;28;20521;-78
2022/04/15 06:51:14;;;;;;;116.00;105.70;;;9.70;95.70;;;;;;5015265;28;20104;-81
2022/04/15 06:53:41;;;;;;;116.07;105.75;;;9.70;95.70;;;;;;5015252;28;20128;-76
2022/04/15 06:56:10;;;;;;;112.78;102.57;;;9.70;95.70;;;;;;5015049;28;20046;-78
2022/04/15 06:58:37;;;;;;;111.38;101.28;;;9.70;95.60;;;;;;5015388;28;20057;-77
2022/04/15 07:01:04;;;;;;;112.85;102.55;;;9.70;95.60;;;;;;4999188;28;20049;-77
2022/04/15 07:03:31;;;;;;;114.88;104.57;;;9.70;95.60;;;;;;5032855;28;20064;-79
2022/04/15 07:05:58;;;;;;;114.22;103.57;;;9.70;95.60;;;;;;5003179;28;20597;-77
2022/04/15 07:08:26;;;;;;;116.65;105.97;;;9.80;95.70;;;;;;5010868;28;20168;-77
2022/04/15 07:10:53;;;;;;;116.30;105.90;;;9.80;95.70;;;;;;4978033;28;20050;-77
2022/04/15 07:13:19;;;;;;;114.75;104.28;;;9.80;95.70;;;;;;4994483;28;20050;-77
2022/04/15 07:15:47;;;;;;;115.47;105.03;;;9.80;95.60;;;;;;5027552;28;20043;-77
2022/04/15 07:18:14;;;;;;;113.60;103.10;;;9.70;95.70;;;;;;4994556;28;20050;-79
2022/04/15 07:20:41;;;;;;;116.80;106.38;;;9.70;95.70;;;;;;4994467;28;20051;-80
2022/04/15 07:23:08;;;;;;;113.30;102.95;;;9.70;95.70;;;;;;5009964;28;20050;-79
2022/04/15 07:25:36;;;;;;;113.72;103.43;;;9.80;95.70;;;;;;5014859;28;20074;-77
2022/04/15 07:28:03;;;;;;;113.57;103.35;;;9.70;95.80;;;;;;5032264;28;20077;-78
2022/04/15 07:30:30;;;;;;;110.60;100.40;;;9.70;95.70;;;;;;5032210;28;20132;-78
2022/04/15 07:32:57;;;;;;;116.10;104.45;;;9.70;95.80;;;;;;5015065;28;20528;-79
2022/04/15 07:35:24;;;;;;;113.88;103.30;;;9.70;96.20;;;;;;5014943;28;20116;-77
2022/04/15 07:37:51;;;;;;;113.80;103.55;;;9.70;96.30;;;;;;5014304;28;20077;-77
2022/04/15 07:40:17;;;;;;;114.38;103.88;;;9.80;96.30;;;;;;5013588;28;20048;-77
2022/04/15 07:42:46;;;;;;;113.40;103.10;;;9.80;96.20;;;;;;5014481;28;20050;-79
2022/04/15 07:45:13;;;;;;;114.75;104.38;;;9.90;96.10;;;;;;4997641;28;20539;-79
2022/04/15 07:47:40;;;;;;;114.60;104.18;;;9.90;96.10;;;;;;5014117;28;20058;-78
2022/04/15 07:50:08;;;;;;;115.53;104.88;;;9.90;96.00;;;;;;5013985;28;20121;-78
2022/04/15 07:52:35;;;;;;;116.78;105.80;;;10.00;96.00;;;;;;5014345;28;20058;-77
2022/04/15 07:55:04;;;;;;;116.93;106.10;;;10.00;95.90;;;;;;5014400;28;20085;-78
2022/04/15 07:57:31;;;;;;;116.75;105.95;;;10.00;95.80;;;;;;5014590;28;20054;-78
2022/04/15 07:59:59;;;;;;;117.53;106.82;;;10.00;95.80;;;;;;5015150;28;20053;-77
2022/04/15 08:02:26;;;;;;;116.90;106.18;;;10.00;95.80;;;;;;4998795;28;20052;-78
2022/04/15 08:04:53;;;;;;;122.15;110.95;;;10.00;95.70;;;;;;5015843;28;20062;-78
2022/04/15 08:07:22;;;;;;;123.05;112.22;;;10.00;95.70;;;;;;4998289;28;20046;-77
2022/04/15 08:09:49;;;;;;;120.93;109.93;;;10.10;95.80;;;;;;5028950;28;20075;-78
2022/04/15 08:12:16;;;;;;;119.88;108.97;;;10.10;95.80;;;;;;5014015;28;20054;-78
2022/04/15 08:14:43;;;;;;;117.22;106.38;;;10.10;95.80;;;;;;4997704;28;20145;-78
2022/04/15 08:17:11;;;;;;;122.07;111.18;;;10.20;95.70;;;;;;5014280;28;20085;-78
2022/04/15 08:19:38;;;;;;;118.45;107.57;;;10.10;95.70;;;;;;5015040;28;20046;-78
2022/04/15 08:22:09;;;;;;;120.55;109.70;;;10.20;95.70;;;;;;5032757;28;20057;-78
2022/04/15 08:24:39;;;;;;;120.28;109.30;;;10.20;95.80;;;;;;5015095;28;20053;-78
2022/04/15 08:27:06;;;;;;;121.38;110.18;;;10.20;95.70;;;;;;5014228;28;20117;-78
2022/04/15 08:29:35;;;;;;;122.95;111.88;;;10.20;95.60;;;;;;4995525;28;20054;-78
2022/04/15 08:32:02;;;;;;;123.95;112.43;;;10.20;95.60;;;;;;5013891;28;20626;-78
2022/04/15 08:34:30;;;;;;;123.45;112.28;;;10.20;95.60;;;;;;5014536;28;20134;-78
2022/04/15 08:36:57;;;;;;;122.20;110.85;;;10.20;95.70;;;;;;4997891;28;20053;-78
2022/04/15 08:39:24;;;;;;;119.72;108.28;;;10.20;95.70;;;;;;4998316;28;20053;-78
2022/04/15 08:41:54;;;;;;;120.50;109.50;;;10.30;95.80;;;;;;5032126;28;20132;-77
2022/04/15 08:44:22;;;;;;;125.20;113.60;;;10.30;95.80;;;;;;5014348;28;20089;-78
2022/04/15 08:46:51;;;;;;;120.13;108.88;;;10.30;95.70;;;;;;4997951;28;20050;-78
2022/04/15 08:49:22;;;;;;;127.95;116.43;;;10.30;96.00;;;;;;5012922;28;20045;-78
2022/04/15 08:51:51;;;;;;;122.85;111.63;;;10.40;95.70;;;;;;5013926;28;20052;-78
2022/04/15 08:54:19;;;;;;;121.20;109.88;;;10.40;95.70;;;;;;5014359;28;20070;-78
2022/04/15 08:56:46;;;;;;;123.45;112.15;;;10.40;95.70;;;;;;4998039;28;20057;-78
2022/04/15 08:59:14;;;;;;;119.82;108.72;;;10.50;95.70;;;;;;5032117;28;20080;-77
2022/04/15 09:01:41;;;;;;;121.60;109.95;;;10.50;95.50;;;;;;5032599;28;20049;-78
2022/04/15 09:04:08;;;;;;;123.13;111.45;;;10.50;95.40;;;;;;5014377;28;20056;-77
2022/04/15 09:06:35;;;;;;;125.70;113.72;;;10.50;95.40;;;;;;5010691;28;20085;-78
2022/04/15 09:09:06;;;;;;;121.65;110.15;;;10.50;95.40;;;;;;5003729;28;20061;-78
2022/04/15 09:11:35;;;;;;;120.20;109.13;;;10.50;95.40;;;;;;5016766;28;20054;-78
2022/04/15 09:14:04;;;;;;;120.25;109.22;;;10.50;95.40;;;;;;5017175;28;20588;-78
2022/04/15 09:16:31;;;;;;;117.55;105.68;;;10.50;95.40;;;;;;5016816;28;20038;-77
2022/04/15 09:18:59;;;;;;;121.93;108.63;;;10.60;95.60;;;;;;5019477;28;20053;-78
2022/04/15 09:21:28;;;;;;;116.35;105.43;;;10.60;95.90;;;;;;5015941;28;20054;-78
2022/04/15 09:23:56;;;;;;;118.55;107.30;;;10.60;95.70;;;;;;5016338;28;20042;-78
2022/04/15 09:26:25;;;;;;;118.72;107.82;;;10.70;95.60;;;;;;5015921;28;20046;-78
2022/04/15 09:28:53;;;;;;;118.70;107.78;;;10.70;95.50;;;;;;5014395;28;20041;-78
2022/04/15 09:31:22;;;;;;;116.82;105.97;;;10.70;95.40;;;;;;5014234;28;20118;-78
2022/04/15 09:33:54;;;;;;;119.35;107.78;;;10.70;95.40;;;;;;5013525;28;20081;-78
2022/04/15 09:36:31;;;;;;;114.57;103.75;;;10.80;95.40;;;;;;5017065;28;20152;-78
2022/04/15 09:39:01;;;;;;;117.65;106.47;;;10.80;95.20;;;;;;5030822;28;20058;-78
2022/04/15 09:41:31;;;;;;;115.82;105.22;;;10.80;95.10;;;;;;5008933;28;20101;-77
2022/04/15 09:44:00;;;;;;;117.63;106.70;;;10.80;95.00;;;;;;5016668;28;20053;-77
2022/04/15 09:46:30;;;;;;;116.55;105.63;;;10.90;95.00;;;;;;5015988;28;20552;-76
2022/04/15 09:49:15;;;;;;;116.22;105.22;;;10.90;94.90;;;;;;5008783;28;20526;-76
2022/04/15 09:51:44;;;;;;;113.40;102.80;;;10.90;94.80;;;;;;5013281;28;20599;-76
2022/04/15 09:54:19;;;;;;;115.43;104.88;;;11.00;94.90;;;;;;5030577;28;20060;-76
2022/04/15 09:56:49;;;;;;;115.57;104.88;;;11.00;94.80;;;;;;5028638;28;20050;-76
2022/04/15 09:59:20;;;;;;;116.90;106.20;;;11.00;94.80;;;;;;5025107;28;20065;-77
2022/04/15 10:01:50;;;;;;;118.13;107.38;;;11.00;94.80;;;;;;5010923;28;20409;-76
2022/04/15 10:04:18;;;;;;;118.18;107.05;;;11.10;94.70;;;;;;5012946;28;20053;-77
2022/04/15 10:06:46;;;;;;;124.43;113.40;;;11.10;94.70;;;;;;5014204;28;20192;-77
2022/04/15 10:09:13;;;;;;;115.10;104.60;;;11.20;94.70;;;;;;5011766;28;20046;-77
2022/04/15 10:11:42;;;;;;;115.93;105.22;;;11.20;94.60;;;;;;5032843;28;20556;-78
2022/04/15 10:14:12;;;;;;;116.20;105.47;;;11.30;94.50;;;;;;5014699;28;20050;-80
2022/04/15 10:16:42;;;;;;;115.72;104.93;;;11.40;94.50;;;;;;5013187;28;20054;-82
2022/04/15 10:19:09;;;;;;;114.30;103.80;;;11.40;94.40;;;;;;5016667;28;20124;-82
2022/04/15 10:21:40;;;;;;;113.78;103.38;;;11.50;94.30;;;;;;5016440;28;20060;-80
2022/04/15 10:24:08;;;;;;;113.93;103.63;;;11.50;94.30;;;;;;4995938;28;20050;-77
2022/04/15 10:26:39;;;;;;;114.13;103.70;;;11.60;94.10;;;;;;5034054;28;20050;-79
2022/04/15 10:29:06;;;;;;;114.20;103.95;;;11.60;94.00;;;;;;5016210;28;20056;-75
2022/04/15 10:31:42;;;;;;;114.65;104.20;;;11.70;93.90;;;;;;5016435;28;20064;-78
2022/04/15 10:34:14;;;;;;;115.05;104.40;;;11.70;93.70;;;;;;4996180;28;20050;-77
2022/04/15 10:36:46;;;;;;;115.45;105.00;;;11.70;93.90;;;;;;5028071;28;20050;-78
2022/04/15 10:39:17;;;;;;;114.35;104.18;;;11.80;93.70;;;;;;4999398;28;20048;-80
2022/04/15 10:41:58;;;;;;;114.38;104.07;;;11.80;93.50;;;;;;5015871;28;20050;-79
2022/04/15 10:44:27;;;;;;;114.75;104.35;;;11.90;93.50;;;;;;4998811;28;20158;-79
2022/04/15 10:46:58;;;;;;;115.35;104.82;;;11.90;93.50;;;;;;5013583;28;20043;-79
2022/04/15 10:49:27;;;;;;;115.35;104.90;;;12.00;93.60;;;;;;5014431;28;20056;-79
2022/04/15 10:52:00;;;;;;;116.97;106.57;;;12.00;93.50;;;;;;5011858;28;20062;-79
2022/04/15 10:54:32;;;;;;;118.57;107.85;;;12.10;93.30;;;;;;5024566;28;20141;-79
2022/04/15 10:56:59;;;;;;;117.75;107.47;;;12.10;93.10;;;;;;5010667;28;20078;-81
2022/04/15 11:02:18;;;;;;;119.10;108.55;;;12.20;92.90;;;;;;5011504;28;20136;-80
2022/04/15 11:04:49;;;;;;;117.20;106.90;;;12.20;92.90;;;;;;5011907;28;20054;-80
2022/04/15 11:07:25;;;;;;;119.68;109.07;;;12.30;92.80;;;;;;4995476;28;20141;-80
2022/04/15 11:09:52;;;;;;;116.65;106.18;;;12.30;92.60;;;;;;5009129;28;20486;-78
2022/04/15 11:12:30;;;;;;;119.78;109.25;;;12.30;92.50;;;;;;5023787;28;20131;-78
2022/04/15 11:14:57;;;;;;;116.38;106.15;;;12.40;92.50;;;;;;5031345;28;20058;-79
2022/04/15 11:17:38;;;;;;;115.95;105.57;;;12.40;92.60;;;;;;5013427;28;20046;-79
2022/04/15 11:20:08;;;;;;;116.57;106.45;;;12.40;92.50;;;;;;5011787;28;20050;-79
2022/04/15 11:22:39;;;;;;;113.85;103.90;;;12.50;92.50;;;;;;5014521;28;20504;-79
2022/04/15 11:25:08;;;;;;;117.13;106.63;;;12.50;92.30;;;;;;5014006;28;20065;-79
2022/04/15 11:27:36;;;;;;;116.70;106.30;;;12.50;92.10;;;;;;5031376;28;20057;-79
2022/04/15 11:30:04;;;;;;;115.25;105.05;;;12.60;92.10;;;;;;5013017;28;20105;-79
2022/04/15 11:32:32;;;;;;;118.97;108.43;;;12.60;92.10;;;;;;5011128;28;20105;-79
2022/04/15 11:35:05;;;;;;;117.03;106.53;;;12.70;92.10;;;;;;5010236;28;20069;-79
2022/04/15 11:37:32;;;;;;;116.20;105.93;;;12.70;91.70;;;;;;5013409;28;20049;-79
2022/04/15 11:40:00;;;;;;;118.13;107.82;;;12.70;91.40;;;;;;5032128;28;20057;-79
2022/04/15 11:42:28;;;;;;;116.15;105.70;;;12.70;91.30;;;;;;5006375;28;20060;-79
2022/04/15 11:44:55;;;;;;;117.95;107.38;;;12.70;91.30;;;;;;5013882;28;20054;-79
2022/04/15 11:47:24;;;;;;;115.80;105.50;;;12.70;91.30;;;;;;5011849;28;20605;-80
2022/04/15 11:49:51;;;;;;;118.40;107.90;;;12.70;91.30;;;;;;5008851;28;20058;-81
2022/04/15 11:52:25;;;;;;;115.75;105.40;;;12.70;91.30;;;;;;5012634;28;20057;-80
2022/04/15 11:54:53;;;;;;;117.70;106.90;;;12.80;91.40;;;;;;5008525;28;20046;-79
2022/04/15 11:57:20;;;;;;;118.22;108.00;;;12.80;91.30;;;;;;5013551;28;20046;-79
2022/04/15 11:59:49;;;;;;;117.65;107.25;;;12.80;91.10;;;;;;5012964;28;20042;-79
2022/04/15 12:02:18;;;;;;;116.07;105.72;;;12.80;91.00;;;;;;5012332;28;20143;-79
2022/04/15 12:04:52;;;;;;;116.47;106.15;;;12.80;90.90;;;;;;5027066;28;20505;-79
2022/04/15 12:07:20;;;;;;;119.30;108.85;;;12.80;90.80;;;;;;4992774;28;20053;-80
2022/04/15 12:09:50;;;;;;;118.63;108.00;;;12.80;90.80;;;;;;5008911;28;20540;-79
2022/04/15 12:12:17;;;;;;;117.05;106.78;;;12.90;90.70;;;;;;5012072;28;20056;-80
2022/04/15 12:14:44;;;;;;;118.85;108.53;;;12.90;90.80;;;;;;4991075;28;20088;-79
2022/04/15 12:17:14;;;;;;;116.90;106.70;;;12.90;90.70;;;;;;5011350;28;20052;-80
2022/04/15 12:19:41;;;;;;;119.63;109.10;;;12.90;90.70;;;;;;5008981;28;20046;-80